Aeroporto :
LOGIN :

Iscrizione | Disclaimer

   EN    FR    IT 

 










Sommario :    VFR   VFR Marginale   IFR   IFR Intensivo   IFR Molto Intensivo
Visibilità : 
Base nubi : 
>= 8 km
>= 3000ft
5 / 8 km
1000 / 3000 ft
1500m / 5 km
500 / 1000 ft
800 / 1500m
200 / 500 ft
< 800m
< 200 ft
Simboli :   Temporali  Nebbia  Neve Forte  Precipitazioni Forti  Vento > 20 kt
SIGMETs :   Varie  Temporali  Ghiacco  Turbolenza  Onda orograficha  Ceneri Vulcaniche







- Altitudine del aeroporto : 62 ft
- Codice IATA : TAN


GMTT - Tanger Ibn Batouta

ULTIMO METAR :
  • 141900Z 32006KT 9999 SCT026 14/07 Q1028 NOSIG

METARs OBSOLETI :
  • 141830Z 32007KT 9999 SCT026 14/07 Q1028 NOSIG
  • 141800Z 32009KT 9999 SCT026 14/07 Q1028 NOSIG
  • 141730Z 31007KT 9999 SCT026 14/08 Q1027 NOSIG
  • 141700Z 31008KT 9999 FEW026 14/08 Q1027 NOSIG
  • 141630Z 30008KT 9999 FEW026 15/07 Q1027 NOSIG
  • 141600Z 31010KT 9999 SCT026 15/07 Q1027 NOSIG

TAF TAF GMTT
Valido dal 14 a 18 ore il 16 a 00 ore UTC


141700Z 1418/1524 30010KT 9999 FEW026
BECMG 1420/1422 20008KT
Nessun NOTAM noto per questo aeroporto.
1 SIGMET conosciuto per la FIR Casablanca (GMMM) :
 
Forte onda orograficha
GMMM SIGMET W5 VALID 141842/141942 GMMC
GMMM CASABLANCA FIR SEV MTW FCST E OF LINE N3443 W00322 - N32413 W00 455 - N3059 W00809 FL050/140 STNR WKN=



MetMap, La meteo Aeronautica in un colpo d'occhio ! - Copyright ORBIFLY Dicembre 2007 - Disclaimer

ORBIFLY MET'MAP TEAM :

Programmazione e sviluppo : Alexandra Zaïnal
Concezione e sviluppo : Baudouin d'Aumeries
Co-Programmazione e sviluppo : Marc-Olivier Méhu
Supporto tecnico e logistico : Manuel Goepfert
Aiuto per la traduzione : Arnaldo La Scala

Contatto : metmap@orbifly.com




FONTI E CREDITI :

   NOAA